sensor_id;sensor_type;location;lat;lon;timestamp;P1;durP1;ratioP1;P2;durP2;ratioP2
53519;SDS011;39397;53.204;5.778;2023-06-26T00:01:26;8.43;;;7.00;;
53519;SDS011;39397;53.204;5.778;2023-06-26T00:03:55;7.43;;;6.63;;
53519;SDS011;39397;53.204;5.778;2023-06-26T00:06:20;8.30;;;6.75;;
53519;SDS011;39397;53.204;5.778;2023-06-26T00:08:49;8.55;;;6.88;;
53519;SDS011;39397;53.204;5.778;2023-06-26T00:11:15;9.40;;;7.20;;
53519;SDS011;39397;53.204;5.778;2023-06-26T00:13:41;9.02;;;7.07;;
53519;SDS011;39397;53.204;5.778;2023-06-26T00:16:07;9.32;;;6.82;;
53519;SDS011;39397;53.204;5.778;2023-06-26T00:18:33;9.07;;;7.47;;
53519;SDS011;39397;53.204;5.778;2023-06-26T00:20:58;8.93;;;6.78;;
53519;SDS011;39397;53.204;5.778;2023-06-26T00:23:24;9.13;;;7.03;;
53519;SDS011;39397;53.204;5.778;2023-06-26T00:25:50;8.60;;;7.07;;
53519;SDS011;39397;53.204;5.778;2023-06-26T00:28:15;8.88;;;6.95;;
53519;SDS011;39397;53.204;5.778;2023-06-26T00:30:41;9.45;;;7.80;;
53519;SDS011;39397;53.204;5.778;2023-06-26T00:33:07;9.32;;;8.38;;
53519;SDS011;39397;53.204;5.778;2023-06-26T00:35:32;9.10;;;7.38;;
53519;SDS011;39397;53.204;5.778;2023-06-26T00:37:58;9.23;;;6.47;;
53519;SDS011;39397;53.204;5.778;2023-06-26T00:40:24;9.68;;;7.30;;
53519;SDS011;39397;53.204;5.778;2023-06-26T00:42:51;9.18;;;7.75;;
53519;SDS011;39397;53.204;5.778;2023-06-26T00:45:17;7.35;;;6.55;;
53519;SDS011;39397;53.204;5.778;2023-06-26T00:47:43;10.20;;;7.15;;
53519;SDS011;39397;53.204;5.778;2023-06-26T00:50:08;8.77;;;7.60;;
53519;SDS011;39397;53.204;5.778;2023-06-26T00:52:34;10.38;;;7.63;;
53519;SDS011;39397;53.204;5.778;2023-06-26T00:55:00;8.10;;;7.15;;
53519;SDS011;39397;53.204;5.778;2023-06-26T00:57:26;9.98;;;7.97;;
53519;SDS011;39397;53.204;5.778;2023-06-26T00:59:52;8.90;;;7.25;;
53519;SDS011;39397;53.204;5.778;2023-06-26T01:02:19;8.95;;;7.45;;
53519;SDS011;39397;53.204;5.778;2023-06-26T01:04:49;9.32;;;8.32;;
53519;SDS011;39397;53.204;5.778;2023-06-26T01:07:15;9.82;;;8.05;;
53519;SDS011;39397;53.204;5.778;2023-06-26T01:09:44;9.23;;;7.78;;
53519;SDS011;39397;53.204;5.778;2023-06-26T01:12:14;9.23;;;7.20;;
53519;SDS011;39397;53.204;5.778;2023-06-26T01:14:39;10.18;;;7.32;;
53519;SDS011;39397;53.204;5.778;2023-06-26T01:17:06;9.45;;;8.10;;
53519;SDS011;39397;53.204;5.778;2023-06-26T01:19:38;11.13;;;8.50;;
53519;SDS011;39397;53.204;5.778;2023-06-26T01:22:27;9.80;;;8.13;;
53519;SDS011;39397;53.204;5.778;2023-06-26T01:25:02;11.80;;;7.90;;
53519;SDS011;39397;53.204;5.778;2023-06-26T01:27:34;8.40;;;7.50;;
53519;SDS011;39397;53.204;5.778;2023-06-26T01:30:02;10.30;;;7.65;;
53519;SDS011;39397;53.204;5.778;2023-06-26T01:32:31;10.40;;;8.82;;
53519;SDS011;39397;53.204;5.778;2023-06-26T01:34:58;16.20;;;8.38;;
53519;SDS011;39397;53.204;5.778;2023-06-26T01:37:24;10.38;;;8.48;;
53519;SDS011;39397;53.204;5.778;2023-06-26T01:39:50;10.68;;;9.13;;
53519;SDS011;39397;53.204;5.778;2023-06-26T01:42:16;9.65;;;8.68;;
53519;SDS011;39397;53.204;5.778;2023-06-26T01:44:44;9.73;;;8.70;;
53519;SDS011;39397;53.204;5.778;2023-06-26T01:47:12;10.88;;;9.63;;
53519;SDS011;39397;53.204;5.778;2023-06-26T01:49:56;10.27;;;9.18;;
53519;SDS011;39397;53.204;5.778;2023-06-26T01:52:41;11.13;;;9.77;;
53519;SDS011;39397;53.204;5.778;2023-06-26T01:55:31;10.00;;;8.95;;
53519;SDS011;39397;53.204;5.778;2023-06-26T01:58:05;10.45;;;9.35;;
53519;SDS011;39397;53.204;5.778;2023-06-26T02:00:31;9.95;;;8.75;;
53519;SDS011;39397;53.204;5.778;2023-06-26T02:02:58;10.95;;;9.85;;
53519;SDS011;39397;53.204;5.778;2023-06-26T02:05:24;13.20;;;10.43;;
53519;SDS011;39397;53.204;5.778;2023-06-26T02:07:50;11.45;;;10.35;;
53519;SDS011;39397;53.204;5.778;2023-06-26T02:10:16;10.95;;;9.95;;
53519;SDS011;39397;53.204;5.778;2023-06-26T02:12:42;12.05;;;9.70;;
53519;SDS011;39397;53.204;5.778;2023-06-26T02:15:08;13.30;;;9.50;;
53519;SDS011;39397;53.204;5.778;2023-06-26T02:17:34;12.00;;;10.57;;
53519;SDS011;39397;53.204;5.778;2023-06-26T02:19:59;12.70;;;10.43;;
53519;SDS011;39397;53.204;5.778;2023-06-26T02:22:25;12.43;;;11.15;;
53519;SDS011;39397;53.204;5.778;2023-06-26T02:24:53;13.00;;;11.13;;
53519;SDS011;39397;53.204;5.778;2023-06-26T02:27:19;12.38;;;11.10;;
53519;SDS011;39397;53.204;5.778;2023-06-26T02:29:45;13.40;;;11.05;;
53519;SDS011;39397;53.204;5.778;2023-06-26T02:32:10;15.70;;;11.85;;
53519;SDS011;39397;53.204;5.778;2023-06-26T02:34:36;12.32;;;11.10;;
53519;SDS011;39397;53.204;5.778;2023-06-26T02:37:02;12.32;;;10.80;;
53519;SDS011;39397;53.204;5.778;2023-06-26T02:39:27;11.88;;;10.57;;
53519;SDS011;39397;53.204;5.778;2023-06-26T02:41:53;11.30;;;9.93;;
53519;SDS011;39397;53.204;5.778;2023-06-26T02:44:19;11.23;;;9.73;;
53519;SDS011;39397;53.204;5.778;2023-06-26T02:46:46;14.02;;;9.45;;
53519;SDS011;39397;53.204;5.778;2023-06-26T02:49:12;10.73;;;8.65;;
53519;SDS011;39397;53.204;5.778;2023-06-26T02:51:37;16.10;;;8.93;;
53519;SDS011;39397;53.204;5.778;2023-06-26T02:54:03;13.13;;;8.45;;
53519;SDS011;39397;53.204;5.778;2023-06-26T02:56:29;13.45;;;8.45;;
53519;SDS011;39397;53.204;5.778;2023-06-26T02:58:57;14.60;;;8.60;;
53519;SDS011;39397;53.204;5.778;2023-06-26T03:01:23;9.68;;;7.57;;
53519;SDS011;39397;53.204;5.778;2023-06-26T03:03:49;14.25;;;8.45;;
53519;SDS011;39397;53.204;5.778;2023-06-26T03:06:15;14.30;;;8.70;;
53519;SDS011;39397;53.204;5.778;2023-06-26T03:08:41;13.27;;;8.93;;
53519;SDS011;39397;53.204;5.778;2023-06-26T03:11:07;12.18;;;9.23;;
53519;SDS011;39397;53.204;5.778;2023-06-26T03:13:34;15.23;;;10.32;;
53519;SDS011;39397;53.204;5.778;2023-06-26T03:16:00;14.05;;;9.77;;
53519;SDS011;39397;53.204;5.778;2023-06-26T03:18:26;15.30;;;10.40;;
53519;SDS011;39397;53.204;5.778;2023-06-26T03:20:52;17.35;;;10.80;;
53519;SDS011;39397;53.204;5.778;2023-06-26T03:23:21;17.77;;;11.05;;
53519;SDS011;39397;53.204;5.778;2023-06-26T03:25:48;18.13;;;10.70;;
53519;SDS011;39397;53.204;5.778;2023-06-26T03:28:14;14.48;;;9.90;;
53519;SDS011;39397;53.204;5.778;2023-06-26T03:30:39;15.30;;;10.45;;
53519;SDS011;39397;53.204;5.778;2023-06-26T03:33:05;17.15;;;9.82;;
53519;SDS011;39397;53.204;5.778;2023-06-26T03:35:31;17.10;;;10.40;;
53519;SDS011;39397;53.204;5.778;2023-06-26T03:37:57;18.02;;;10.07;;
53519;SDS011;39397;53.204;5.778;2023-06-26T03:40:23;16.65;;;10.07;;
53519;SDS011;39397;53.204;5.778;2023-06-26T03:42:49;17.48;;;10.10;;
53519;SDS011;39397;53.204;5.778;2023-06-26T03:45:15;17.77;;;10.30;;
53519;SDS011;39397;53.204;5.778;2023-06-26T03:47:40;16.80;;;10.45;;
53519;SDS011;39397;53.204;5.778;2023-06-26T03:50:06;19.42;;;10.10;;
53519;SDS011;39397;53.204;5.778;2023-06-26T03:52:32;16.77;;;10.77;;
53519;SDS011;39397;53.204;5.778;2023-06-26T03:54:58;19.17;;;10.30;;
53519;SDS011;39397;53.204;5.778;2023-06-26T03:57:24;16.35;;;10.95;;
53519;SDS011;39397;53.204;5.778;2023-06-26T03:59:50;15.60;;;9.38;;
53519;SDS011;39397;53.204;5.778;2023-06-26T04:02:15;16.70;;;10.85;;
53519;SDS011;39397;53.204;5.778;2023-06-26T04:04:41;18.98;;;10.85;;
53519;SDS011;39397;53.204;5.778;2023-06-26T04:07:07;15.25;;;11.15;;
53519;SDS011;39397;53.204;5.778;2023-06-26T04:09:32;13.63;;;9.50;;
53519;SDS011;39397;53.204;5.778;2023-06-26T04:11:58;17.70;;;9.55;;
53519;SDS011;39397;53.204;5.778;2023-06-26T04:14:24;21.50;;;9.93;;
53519;SDS011;39397;53.204;5.778;2023-06-26T04:16:49;17.85;;;8.80;;
53519;SDS011;39397;53.204;5.778;2023-06-26T04:19:15;16.33;;;8.25;;
53519;SDS011;39397;53.204;5.778;2023-06-26T04:21:41;15.75;;;8.48;;
53519;SDS011;39397;53.204;5.778;2023-06-26T04:24:07;17.58;;;7.28;;
53519;SDS011;39397;53.204;5.778;2023-06-26T04:26:32;17.50;;;7.05;;
53519;SDS011;39397;53.204;5.778;2023-06-26T04:28:58;16.63;;;7.80;;
53519;SDS011;39397;53.204;5.778;2023-06-26T04:31:24;10.88;;;5.75;;
53519;SDS011;39397;53.204;5.778;2023-06-26T04:33:50;12.18;;;5.93;;
53519;SDS011;39397;53.204;5.778;2023-06-26T04:36:18;12.32;;;5.38;;
53519;SDS011;39397;53.204;5.778;2023-06-26T04:38:43;12.75;;;4.55;;
53519;SDS011;39397;53.204;5.778;2023-06-26T04:41:09;11.23;;;4.22;;
53519;SDS011;39397;53.204;5.778;2023-06-26T04:43:35;12.77;;;4.97;;
53519;SDS011;39397;53.204;5.778;2023-06-26T04:46:02;12.38;;;4.43;;
53519;SDS011;39397;53.204;5.778;2023-06-26T04:48:28;19.42;;;5.30;;
53519;SDS011;39397;53.204;5.778;2023-06-26T04:50:54;15.27;;;4.75;;
53519;SDS011;39397;53.204;5.778;2023-06-26T04:53:21;15.88;;;4.70;;
53519;SDS011;39397;53.204;5.778;2023-06-26T04:55:48;15.10;;;4.25;;
53519;SDS011;39397;53.204;5.778;2023-06-26T04:58:15;14.43;;;4.72;;
53519;SDS011;39397;53.204;5.778;2023-06-26T05:00:41;14.63;;;4.43;;
53519;SDS011;39397;53.204;5.778;2023-06-26T05:03:11;16.95;;;4.43;;
53519;SDS011;39397;53.204;5.778;2023-06-26T05:05:37;14.07;;;4.10;;
53519;SDS011;39397;53.204;5.778;2023-06-26T05:08:20;15.93;;;4.22;;
53519;SDS011;39397;53.204;5.778;2023-06-26T05:10:47;14.43;;;4.63;;
53519;SDS011;39397;53.204;5.778;2023-06-26T05:13:13;13.90;;;3.97;;
53519;SDS011;39397;53.204;5.778;2023-06-26T05:15:42;13.35;;;3.40;;
53519;SDS011;39397;53.204;5.778;2023-06-26T05:18:09;14.13;;;3.85;;
53519;SDS011;39397;53.204;5.778;2023-06-26T05:20:35;14.32;;;4.00;;
53519;SDS011;39397;53.204;5.778;2023-06-26T05:23:02;17.55;;;4.18;;
53519;SDS011;39397;53.204;5.778;2023-06-26T05:25:29;13.15;;;4.45;;
53519;SDS011;39397;53.204;5.778;2023-06-26T05:27:56;12.23;;;4.32;;
53519;SDS011;39397;53.204;5.778;2023-06-26T05:30:23;13.48;;;4.43;;
53519;SDS011;39397;53.204;5.778;2023-06-26T05:32:53;15.98;;;3.97;;
53519;SDS011;39397;53.204;5.778;2023-06-26T05:35:22;12.63;;;4.00;;
53519;SDS011;39397;53.204;5.778;2023-06-26T05:37:49;11.75;;;3.20;;
53519;SDS011;39397;53.204;5.778;2023-06-26T05:40:18;12.07;;;3.40;;
53519;SDS011;39397;53.204;5.778;2023-06-26T05:42:44;12.18;;;2.75;;
53519;SDS011;39397;53.204;5.778;2023-06-26T05:45:10;10.63;;;3.20;;
53519;SDS011;39397;53.204;5.778;2023-06-26T05:47:36;11.48;;;3.25;;
53519;SDS011;39397;53.204;5.778;2023-06-26T05:50:02;8.35;;;2.67;;
53519;SDS011;39397;53.204;5.778;2023-06-26T05:52:29;9.13;;;2.38;;
53519;SDS011;39397;53.204;5.778;2023-06-26T05:54:58;12.07;;;2.95;;
53519;SDS011;39397;53.204;5.778;2023-06-26T05:57:25;13.38;;;2.92;;
53519;SDS011;39397;53.204;5.778;2023-06-26T05:59:52;9.23;;;2.55;;
53519;SDS011;39397;53.204;5.778;2023-06-26T06:02:18;13.10;;;2.85;;
53519;SDS011;39397;53.204;5.778;2023-06-26T06:04:44;8.45;;;2.60;;
53519;SDS011;39397;53.204;5.778;2023-06-26T06:07:09;11.63;;;2.88;;
53519;SDS011;39397;53.204;5.778;2023-06-26T06:09:35;11.27;;;3.53;;
53519;SDS011;39397;53.204;5.778;2023-06-26T06:12:01;10.23;;;2.95;;
53519;SDS011;39397;53.204;5.778;2023-06-26T06:14:28;10.68;;;2.70;;
53519;SDS011;39397;53.204;5.778;2023-06-26T06:16:54;9.57;;;2.50;;
53519;SDS011;39397;53.204;5.778;2023-06-26T06:19:20;11.50;;;3.25;;
53519;SDS011;39397;53.204;5.778;2023-06-26T06:21:45;15.32;;;3.47;;
53519;SDS011;39397;53.204;5.778;2023-06-26T06:24:11;11.00;;;2.45;;
53519;SDS011;39397;53.204;5.778;2023-06-26T06:26:36;10.70;;;2.42;;
53519;SDS011;39397;53.204;5.778;2023-06-26T06:29:02;9.20;;;2.30;;
53519;SDS011;39397;53.204;5.778;2023-06-26T06:31:28;10.27;;;2.72;;
53519;SDS011;39397;53.204;5.778;2023-06-26T06:33:54;11.23;;;2.17;;
53519;SDS011;39397;53.204;5.778;2023-06-26T06:36:20;7.05;;;2.20;;
53519;SDS011;39397;53.204;5.778;2023-06-26T06:38:46;8.57;;;2.00;;
53519;SDS011;39397;53.204;5.778;2023-06-26T06:41:11;5.55;;;1.83;;
53519;SDS011;39397;53.204;5.778;2023-06-26T06:43:37;7.53;;;1.85;;
53519;SDS011;39397;53.204;5.778;2023-06-26T06:46:03;5.32;;;1.52;;
53519;SDS011;39397;53.204;5.778;2023-06-26T06:48:30;5.05;;;1.73;;
53519;SDS011;39397;53.204;5.778;2023-06-26T06:50:56;7.03;;;2.33;;
53519;SDS011;39397;53.204;5.778;2023-06-26T06:53:22;7.57;;;2.03;;
53519;SDS011;39397;53.204;5.778;2023-06-26T06:55:48;6.88;;;1.95;;
53519;SDS011;39397;53.204;5.778;2023-06-26T06:58:14;5.35;;;1.90;;
53519;SDS011;39397;53.204;5.778;2023-06-26T07:00:47;7.63;;;1.77;;
53519;SDS011;39397;53.204;5.778;2023-06-26T07:03:14;9.00;;;2.28;;
53519;SDS011;39397;53.204;5.778;2023-06-26T07:05:43;6.68;;;1.80;;
53519;SDS011;39397;53.204;5.778;2023-06-26T07:08:08;6.40;;;1.70;;
53519;SDS011;39397;53.204;5.778;2023-06-26T07:10:34;7.65;;;2.10;;
53519;SDS011;39397;53.204;5.778;2023-06-26T07:13:00;7.28;;;2.00;;
53519;SDS011;39397;53.204;5.778;2023-06-26T07:15:27;8.27;;;2.40;;
53519;SDS011;39397;53.204;5.778;2023-06-26T07:17:52;7.22;;;2.10;;
53519;SDS011;39397;53.204;5.778;2023-06-26T07:20:18;6.80;;;2.00;;
53519;SDS011;39397;53.204;5.778;2023-06-26T07:22:44;6.97;;;2.65;;
53519;SDS011;39397;53.204;5.778;2023-06-26T07:25:10;7.40;;;1.75;;
53519;SDS011;39397;53.204;5.778;2023-06-26T07:27:40;6.43;;;2.10;;
53519;SDS011;39397;53.204;5.778;2023-06-26T07:30:07;5.32;;;2.00;;
53519;SDS011;39397;53.204;5.778;2023-06-26T07:32:36;6.70;;;2.60;;
53519;SDS011;39397;53.204;5.778;2023-06-26T07:35:03;12.00;;;3.40;;
53519;SDS011;39397;53.204;5.778;2023-06-26T07:37:29;8.02;;;2.17;;
53519;SDS011;39397;53.204;5.778;2023-06-26T07:39:55;8.05;;;2.38;;
53519;SDS011;39397;53.204;5.778;2023-06-26T07:42:20;7.35;;;1.90;;
53519;SDS011;39397;53.204;5.778;2023-06-26T07:44:46;7.60;;;2.30;;
53519;SDS011;39397;53.204;5.778;2023-06-26T07:47:12;9.05;;;2.78;;
53519;SDS011;39397;53.204;5.778;2023-06-26T07:49:38;9.82;;;2.20;;
53519;SDS011;39397;53.204;5.778;2023-06-26T07:52:05;8.50;;;2.35;;
53519;SDS011;39397;53.204;5.778;2023-06-26T07:54:31;9.52;;;2.85;;
53519;SDS011;39397;53.204;5.778;2023-06-26T07:57:01;6.85;;;2.33;;
53519;SDS011;39397;53.204;5.778;2023-06-26T07:59:29;9.38;;;2.42;;
53519;SDS011;39397;53.204;5.778;2023-06-26T08:01:56;5.85;;;2.38;;
53519;SDS011;39397;53.204;5.778;2023-06-26T08:04:23;7.25;;;2.00;;
53519;SDS011;39397;53.204;5.778;2023-06-26T08:06:50;11.07;;;2.90;;
53519;SDS011;39397;53.204;5.778;2023-06-26T08:09:18;5.75;;;2.22;;
53519;SDS011;39397;53.204;5.778;2023-06-26T08:11:45;7.40;;;2.90;;
53519;SDS011;39397;53.204;5.778;2023-06-26T08:14:11;8.43;;;2.38;;
53519;SDS011;39397;53.204;5.778;2023-06-26T08:16:41;10.50;;;2.72;;
53519;SDS011;39397;53.204;5.778;2023-06-26T08:19:07;11.10;;;2.33;;
53519;SDS011;39397;53.204;5.778;2023-06-26T08:21:33;6.90;;;2.58;;
53519;SDS011;39397;53.204;5.778;2023-06-26T08:23:59;9.77;;;2.90;;
53519;SDS011;39397;53.204;5.778;2023-06-26T08:26:25;8.52;;;3.15;;
53519;SDS011;39397;53.204;5.778;2023-06-26T08:28:50;10.02;;;3.55;;
53519;SDS011;39397;53.204;5.778;2023-06-26T08:31:16;8.57;;;3.03;;
53519;SDS011;39397;53.204;5.778;2023-06-26T08:33:42;11.10;;;3.70;;
53519;SDS011;39397;53.204;5.778;2023-06-26T08:36:08;11.45;;;3.47;;
53519;SDS011;39397;53.204;5.778;2023-06-26T08:38:34;10.13;;;3.75;;
53519;SDS011;39397;53.204;5.778;2023-06-26T08:41:00;8.73;;;3.50;;
53519;SDS011;39397;53.204;5.778;2023-06-26T08:43:26;9.35;;;3.30;;
53519;SDS011;39397;53.204;5.778;2023-06-26T08:45:52;6.50;;;2.65;;
53519;SDS011;39397;53.204;5.778;2023-06-26T08:48:18;8.15;;;2.45;;
53519;SDS011;39397;53.204;5.778;2023-06-26T08:50:45;10.80;;;3.50;;
53519;SDS011;39397;53.204;5.778;2023-06-26T08:55:43;7.68;;;3.13;;
53519;SDS011;39397;53.204;5.778;2023-06-26T08:58:09;8.20;;;3.28;;
53519;SDS011;39397;53.204;5.778;2023-06-26T09:00:37;6.18;;;2.38;;
53519;SDS011;39397;53.204;5.778;2023-06-26T09:03:03;7.43;;;2.95;;
53519;SDS011;39397;53.204;5.778;2023-06-26T09:05:29;8.30;;;3.47;;
53519;SDS011;39397;53.204;5.778;2023-06-26T09:07:57;6.13;;;2.90;;
53519;SDS011;39397;53.204;5.778;2023-06-26T09:10:23;9.93;;;2.80;;
53519;SDS011;39397;53.204;5.778;2023-06-26T09:12:50;5.75;;;2.60;;
53519;SDS011;39397;53.204;5.778;2023-06-26T09:15:18;6.07;;;2.40;;
53519;SDS011;39397;53.204;5.778;2023-06-26T09:17:45;9.98;;;2.78;;
53519;SDS011;39397;53.204;5.778;2023-06-26T09:20:11;7.18;;;3.03;;
53519;SDS011;39397;53.204;5.778;2023-06-26T09:22:40;7.25;;;3.58;;
53519;SDS011;39397;53.204;5.778;2023-06-26T09:25:07;6.97;;;3.15;;
53519;SDS011;39397;53.204;5.778;2023-06-26T09:27:34;5.95;;;2.53;;
53519;SDS011;39397;53.204;5.778;2023-06-26T09:30:04;10.07;;;3.42;;
53519;SDS011;39397;53.204;5.778;2023-06-26T09:32:35;8.75;;;3.17;;
53519;SDS011;39397;53.204;5.778;2023-06-26T09:35:02;8.25;;;2.78;;
53519;SDS011;39397;53.204;5.778;2023-06-26T09:37:28;6.18;;;2.60;;
53519;SDS011;39397;53.204;5.778;2023-06-26T09:39:54;7.28;;;2.50;;
53519;SDS011;39397;53.204;5.778;2023-06-26T09:42:20;8.90;;;2.42;;
53519;SDS011;39397;53.204;5.778;2023-06-26T09:44:47;6.15;;;2.50;;
53519;SDS011;39397;53.204;5.778;2023-06-26T09:47:16;7.35;;;2.13;;
53519;SDS011;39397;53.204;5.778;2023-06-26T09:49:44;9.02;;;2.40;;
53519;SDS011;39397;53.204;5.778;2023-06-26T09:52:10;9.07;;;2.35;;
53519;SDS011;39397;53.204;5.778;2023-06-26T09:54:42;6.82;;;1.95;;
53519;SDS011;39397;53.204;5.778;2023-06-26T09:57:10;9.10;;;2.03;;
53519;SDS011;39397;53.204;5.778;2023-06-26T09:59:38;7.15;;;1.92;;
53519;SDS011;39397;53.204;5.778;2023-06-26T10:02:05;11.13;;;2.05;;
53519;SDS011;39397;53.204;5.778;2023-06-26T10:04:31;6.22;;;1.52;;
53519;SDS011;39397;53.204;5.778;2023-06-26T10:06:57;9.15;;;1.92;;
53519;SDS011;39397;53.204;5.778;2023-06-26T10:09:25;8.10;;;1.95;;
53519;SDS011;39397;53.204;5.778;2023-06-26T10:11:58;12.18;;;2.30;;
53519;SDS011;39397;53.204;5.778;2023-06-26T10:14:33;7.72;;;1.95;;
53519;SDS011;39397;53.204;5.778;2023-06-26T10:17:01;7.40;;;1.75;;
53519;SDS011;39397;53.204;5.778;2023-06-26T10:19:31;8.05;;;1.90;;
53519;SDS011;39397;53.204;5.778;2023-06-26T10:21:59;9.65;;;1.90;;
53519;SDS011;39397;53.204;5.778;2023-06-26T10:24:28;9.02;;;2.22;;
53519;SDS011;39397;53.204;5.778;2023-06-26T10:27:02;8.82;;;1.52;;
53519;SDS011;39397;53.204;5.778;2023-06-26T10:29:33;7.28;;;1.73;;
53519;SDS011;39397;53.204;5.778;2023-06-26T10:32:00;7.30;;;2.00;;
53519;SDS011;39397;53.204;5.778;2023-06-26T10:34:29;7.72;;;1.90;;
53519;SDS011;39397;53.204;5.778;2023-06-26T10:36:59;11.30;;;1.77;;
53519;SDS011;39397;53.204;5.778;2023-06-26T10:39:26;5.65;;;1.42;;
53519;SDS011;39397;53.204;5.778;2023-06-26T10:41:54;5.75;;;1.23;;
53519;SDS011;39397;53.204;5.778;2023-06-26T10:44:20;9.52;;;1.85;;
53519;SDS011;39397;53.204;5.778;2023-06-26T10:46:52;7.22;;;1.73;;
53519;SDS011;39397;53.204;5.778;2023-06-26T10:49:20;8.65;;;1.70;;
53519;SDS011;39397;53.204;5.778;2023-06-26T10:51:50;9.65;;;1.98;;
53519;SDS011;39397;53.204;5.778;2023-06-26T10:54:17;10.35;;;2.25;;
53519;SDS011;39397;53.204;5.778;2023-06-26T10:59:12;10.90;;;2.22;;
53519;SDS011;39397;53.204;5.778;2023-06-26T11:01:43;10.07;;;1.90;;
53519;SDS011;39397;53.204;5.778;2023-06-26T11:04:11;9.43;;;2.00;;
53519;SDS011;39397;53.204;5.778;2023-06-26T11:06:39;7.93;;;1.90;;
53519;SDS011;39397;53.204;5.778;2023-06-26T11:12:13;8.20;;;2.10;;
53519;SDS011;39397;53.204;5.778;2023-06-26T11:14:24;10.20;;;2.25;;
53519;SDS011;39397;53.204;5.778;2023-06-26T11:16:51;8.18;;;1.88;;
53519;SDS011;39397;53.204;5.778;2023-06-26T11:19:18;5.60;;;1.65;;
53519;SDS011;39397;53.204;5.778;2023-06-26T11:21:45;9.35;;;2.10;;
53519;SDS011;39397;53.204;5.778;2023-06-26T11:24:11;10.73;;;2.15;;
53519;SDS011;39397;53.204;5.778;2023-06-26T11:26:41;11.20;;;2.20;;
53519;SDS011;39397;53.204;5.778;2023-06-26T11:29:08;9.60;;;1.85;;
53519;SDS011;39397;53.204;5.778;2023-06-26T11:31:35;10.32;;;1.83;;
53519;SDS011;39397;53.204;5.778;2023-06-26T11:34:03;7.00;;;2.33;;
53519;SDS011;39397;53.204;5.778;2023-06-26T11:36:32;8.23;;;2.03;;
53519;SDS011;39397;53.204;5.778;2023-06-26T11:39:02;9.15;;;3.08;;
53519;SDS011;39397;53.204;5.778;2023-06-26T11:41:32;7.22;;;1.73;;
53519;SDS011;39397;53.204;5.778;2023-06-26T11:44:02;8.82;;;2.65;;
53519;SDS011;39397;53.204;5.778;2023-06-26T11:46:28;8.75;;;2.38;;
53519;SDS011;39397;53.204;5.778;2023-06-26T11:48:54;8.50;;;2.08;;
53519;SDS011;39397;53.204;5.778;2023-06-26T11:51:19;9.52;;;2.20;;
53519;SDS011;39397;53.204;5.778;2023-06-26T11:53:46;11.95;;;2.25;;
53519;SDS011;39397;53.204;5.778;2023-06-26T11:56:13;9.40;;;2.38;;
53519;SDS011;39397;53.204;5.778;2023-06-26T12:01:41;10.38;;;2.20;;
53519;SDS011;39397;53.204;5.778;2023-06-26T12:04:10;7.47;;;1.90;;
53519;SDS011;39397;53.204;5.778;2023-06-26T12:06:37;9.52;;;2.08;;
53519;SDS011;39397;53.204;5.778;2023-06-26T12:09:06;9.10;;;2.17;;
53519;SDS011;39397;53.204;5.778;2023-06-26T12:11:34;8.60;;;1.65;;
53519;SDS011;39397;53.204;5.778;2023-06-26T12:14:01;7.70;;;1.77;;
53519;SDS011;39397;53.204;5.778;2023-06-26T12:16:29;9.38;;;2.15;;
53519;SDS011;39397;53.204;5.778;2023-06-26T12:18:59;7.50;;;1.60;;
53519;SDS011;39397;53.204;5.778;2023-06-26T12:24:06;9.70;;;2.47;;
53519;SDS011;39397;53.204;5.778;2023-06-26T12:26:33;7.75;;;1.60;;
53519;SDS011;39397;53.204;5.778;2023-06-26T12:29:07;6.50;;;1.80;;
53519;SDS011;39397;53.204;5.778;2023-06-26T12:31:34;7.80;;;2.17;;
53519;SDS011;39397;53.204;5.778;2023-06-26T12:34:01;9.15;;;1.85;;
53519;SDS011;39397;53.204;5.778;2023-06-26T12:36:39;9.57;;;2.13;;
53519;SDS011;39397;53.204;5.778;2023-06-26T12:39:05;7.93;;;2.20;;
53519;SDS011;39397;53.204;5.778;2023-06-26T12:41:34;8.68;;;2.05;;
53519;SDS011;39397;53.204;5.778;2023-06-26T12:43:59;8.98;;;1.80;;
53519;SDS011;39397;53.204;5.778;2023-06-26T12:46:34;7.15;;;1.90;;
53519;SDS011;39397;53.204;5.778;2023-06-26T12:49:00;6.95;;;2.10;;
53519;SDS011;39397;53.204;5.778;2023-06-26T12:51:26;7.53;;;2.40;;
53519;SDS011;39397;53.204;5.778;2023-06-26T12:53:52;8.30;;;2.05;;
53519;SDS011;39397;53.204;5.778;2023-06-26T12:56:18;10.88;;;1.90;;
53519;SDS011;39397;53.204;5.778;2023-06-26T12:58:45;6.82;;;1.92;;
53519;SDS011;39397;53.204;5.778;2023-06-26T13:01:10;9.50;;;2.00;;
53519;SDS011;39397;53.204;5.778;2023-06-26T13:03:38;9.65;;;1.77;;
53519;SDS011;39397;53.204;5.778;2023-06-26T13:06:05;8.43;;;2.08;;
53519;SDS011;39397;53.204;5.778;2023-06-26T13:08:31;8.18;;;2.47;;
53519;SDS011;39397;53.204;5.778;2023-06-26T13:10:56;8.43;;;1.80;;
53519;SDS011;39397;53.204;5.778;2023-06-26T13:13:22;8.65;;;2.00;;
53519;SDS011;39397;53.204;5.778;2023-06-26T13:15:48;11.15;;;1.88;;
53519;SDS011;39397;53.204;5.778;2023-06-26T13:18:14;9.50;;;1.88;;
53519;SDS011;39397;53.204;5.778;2023-06-26T13:20:40;8.77;;;1.88;;
53519;SDS011;39397;53.204;5.778;2023-06-26T13:23:06;5.78;;;1.52;;
53519;SDS011;39397;53.204;5.778;2023-06-26T13:25:32;10.45;;;1.70;;
53519;SDS011;39397;53.204;5.778;2023-06-26T13:27:58;7.38;;;1.70;;
53519;SDS011;39397;53.204;5.778;2023-06-26T13:30:24;7.07;;;1.67;;
53519;SDS011;39397;53.204;5.778;2023-06-26T13:32:49;7.30;;;1.55;;
53519;SDS011;39397;53.204;5.778;2023-06-26T13:35:15;5.97;;;1.50;;
53519;SDS011;39397;53.204;5.778;2023-06-26T13:37:41;5.88;;;1.40;;
53519;SDS011;39397;53.204;5.778;2023-06-26T13:40:08;7.60;;;1.90;;
53519;SDS011;39397;53.204;5.778;2023-06-26T13:42:34;7.78;;;1.92;;
53519;SDS011;39397;53.204;5.778;2023-06-26T13:45:01;9.40;;;1.60;;
53519;SDS011;39397;53.204;5.778;2023-06-26T13:47:28;8.48;;;1.63;;
53519;SDS011;39397;53.204;5.778;2023-06-26T13:49:54;7.97;;;1.73;;
53519;SDS011;39397;53.204;5.778;2023-06-26T13:52:20;4.93;;;1.50;;
53519;SDS011;39397;53.204;5.778;2023-06-26T13:54:46;6.55;;;1.80;;
53519;SDS011;39397;53.204;5.778;2023-06-26T13:57:11;7.35;;;1.50;;
53519;SDS011;39397;53.204;5.778;2023-06-26T13:59:38;9.95;;;1.75;;
53519;SDS011;39397;53.204;5.778;2023-06-26T14:02:07;7.15;;;2.00;;
53519;SDS011;39397;53.204;5.778;2023-06-26T14:04:33;6.05;;;1.67;;
53519;SDS011;39397;53.204;5.778;2023-06-26T14:06:59;9.73;;;1.80;;
53519;SDS011;39397;53.204;5.778;2023-06-26T14:09:25;9.73;;;2.13;;
53519;SDS011;39397;53.204;5.778;2023-06-26T14:11:50;10.98;;;1.80;;
53519;SDS011;39397;53.204;5.778;2023-06-26T14:14:16;6.90;;;1.67;;
53519;SDS011;39397;53.204;5.778;2023-06-26T14:16:42;8.82;;;2.08;;
53519;SDS011;39397;53.204;5.778;2023-06-26T14:19:08;8.27;;;1.88;;
53519;SDS011;39397;53.204;5.778;2023-06-26T14:21:39;9.15;;;1.98;;
53519;SDS011;39397;53.204;5.778;2023-06-26T14:24:05;10.30;;;1.90;;
53519;SDS011;39397;53.204;5.778;2023-06-26T14:26:31;8.38;;;1.95;;
53519;SDS011;39397;53.204;5.778;2023-06-26T14:28:58;8.45;;;1.92;;
53519;SDS011;39397;53.204;5.778;2023-06-26T14:31:27;7.18;;;1.88;;
53519;SDS011;39397;53.204;5.778;2023-06-26T14:33:53;7.07;;;1.90;;
53519;SDS011;39397;53.204;5.778;2023-06-26T14:36:19;7.38;;;1.98;;
53519;SDS011;39397;53.204;5.778;2023-06-26T14:38:45;9.23;;;2.00;;
53519;SDS011;39397;53.204;5.778;2023-06-26T14:41:11;10.15;;;1.98;;
53519;SDS011;39397;53.204;5.778;2023-06-26T14:43:38;8.00;;;1.92;;
53519;SDS011;39397;53.204;5.778;2023-06-26T14:46:04;7.57;;;1.67;;
53519;SDS011;39397;53.204;5.778;2023-06-26T14:48:29;7.05;;;1.75;;
53519;SDS011;39397;53.204;5.778;2023-06-26T14:50:55;8.13;;;2.13;;
53519;SDS011;39397;53.204;5.778;2023-06-26T14:53:21;7.32;;;1.48;;